Time;durP1;ratioP1;P1;durP2;ratioP2;P2;SDS_P1;SDS_P2;PMS_P1;PMS_P2;Temp;Humidity;BMP_temperature;BMP_pressure;BME280_temperature;BME280_humidity;BME280_pressure;Samples;Min_cycle;Max_cycle;Signal;HPM_P1;HPM_P2
2023/05/26 00:00:04;;;;;;;9.65;6.20;;;17.90;39.60;;;;;;4995451;28;20171;-53
2023/05/26 00:02:30;;;;;;;10.95;6.43;;;17.80;39.60;;;;;;4995696;28;20175;-53
2023/05/26 00:05:01;;;;;;;7.73;6.93;;;17.80;39.50;;;;;;4995260;28;20195;-53
2023/05/26 00:07:27;;;;;;;6.85;5.80;;;17.70;39.80;;;;;;4995442;28;20167;-54
2023/05/26 00:09:53;;;;;;;9.57;6.83;;;17.70;39.90;;;;;;4994994;28;20191;-54
2023/05/26 00:12:19;;;;;;;9.73;5.85;;;17.60;39.70;;;;;;4977694;28;20187;-53
2023/05/26 00:14:46;;;;;;;7.55;6.75;;;17.60;39.90;;;;;;4994993;28;20593;-53
2023/05/26 00:17:12;;;;;;;6.63;5.77;;;17.60;39.90;;;;;;4995172;28;20173;-54
2023/05/26 00:19:39;;;;;;;5.38;4.82;;;17.50;39.90;;;;;;4994867;28;20171;-54
2023/05/26 00:22:05;;;;;;;11.00;6.50;;;17.50;40.00;;;;;;4995054;28;20262;-53
2023/05/26 00:24:31;;;;;;;8.75;6.85;;;17.50;40.30;;;;;;4994914;28;20511;-53
2023/05/26 00:26:56;;;;;;;8.97;6.57;;;17.40;40.40;;;;;;4994856;28;20820;-53
2023/05/26 00:29:22;;;;;;;7.83;6.33;;;17.40;40.50;;;;;;4994918;28;20183;-53
2023/05/26 00:31:48;;;;;;;6.43;5.60;;;17.30;40.50;;;;;;4995170;28;20518;-54
2023/05/26 00:34:13;;;;;;;14.63;6.63;;;17.30;40.50;;;;;;4994741;28;20221;-54
2023/05/26 00:36:39;;;;;;;8.40;5.80;;;17.20;40.40;;;;;;4994753;28;20202;-53
2023/05/26 00:39:05;;;;;;;9.40;6.60;;;17.20;40.50;;;;;;4994431;28;20263;-53
2023/05/26 00:41:31;;;;;;;9.87;6.13;;;17.20;40.60;;;;;;4994826;28;20221;-53
2023/05/26 00:43:56;;;;;;;9.63;6.10;;;17.20;40.50;;;;;;4994668;28;20226;-53
2023/05/26 00:46:22;;;;;;;8.47;6.80;;;17.10;40.50;;;;;;4994664;28;20202;-53
2023/05/26 00:48:48;;;;;;;10.37;6.53;;;17.10;40.50;;;;;;4994812;28;20544;-53
2023/05/26 00:51:14;;;;;;;12.17;7.30;;;17.10;40.60;;;;;;4994610;28;20182;-53
2023/05/26 00:53:43;;;;;;;8.97;7.00;;;17.10;40.40;;;;;;4994553;28;20530;-53
2023/05/26 00:56:15;;;;;;;10.02;6.57;;;17.00;40.40;;;;;;4994551;28;20427;-53
2023/05/26 00:58:42;;;;;;;10.50;6.35;;;17.00;40.40;;;;;;4994665;28;20585;-53
2023/05/26 01:01:09;;;;;;;8.10;5.88;;;16.90;40.50;;;;;;4993190;28;20174;-53
2023/05/26 01:03:37;;;;;;;7.13;6.43;;;16.90;40.40;;;;;;4994336;28;20176;-53
2023/05/26 01:06:03;;;;;;;6.88;5.43;;;16.90;40.30;;;;;;4994107;28;20215;-53
2023/05/26 01:08:30;;;;;;;9.48;5.80;;;16.80;40.40;;;;;;4994464;28;20233;-54
2023/05/26 01:11:08;;;;;;;7.10;6.22;;;16.80;40.60;;;;;;4993937;28;20174;-53
2023/05/26 01:14:04;;;;;;;10.73;7.00;;;16.70;40.80;;;;;;4994028;28;20519;-53
2023/05/26 01:16:42;;;;;;;14.85;6.82;;;16.70;40.80;;;;;;4948424;28;20206;-53
2023/05/26 01:19:27;;;;;;;8.73;6.60;;;16.60;40.70;;;;;;4994053;28;20257;-53
2023/05/26 01:22:01;;;;;;;9.30;6.85;;;16.60;40.80;;;;;;4994170;28;20179;-54
2023/05/26 01:24:32;;;;;;;8.18;6.60;;;16.60;41.00;;;;;;4993897;28;20626;-55
2023/05/26 01:27:18;;;;;;;6.63;5.78;;;16.50;41.00;;;;;;4993679;28;20689;-53
2023/05/26 01:29:45;;;;;;;11.10;6.95;;;16.50;41.20;;;;;;4993574;28;20178;-54
2023/05/26 01:32:14;;;;;;;8.57;6.25;;;16.50;41.10;;;;;;4994265;28;20184;-54
2023/05/26 01:34:40;;;;;;;9.60;7.13;;;16.50;41.00;;;;;;4993717;28;20661;-54
2023/05/26 01:37:06;;;;;;;11.27;7.70;;;16.40;41.00;;;;;;4993678;28;20179;-54
2023/05/26 01:39:34;;;;;;;12.35;7.30;;;16.40;41.10;;;;;;4993522;28;20418;-54
2023/05/26 01:42:13;;;;;;;9.57;7.72;;;16.30;40.90;;;;;;4993842;28;20210;-54
2023/05/26 01:44:48;;;;;;;8.65;7.30;;;16.30;41.20;;;;;;4993578;28;20174;-54
2023/05/26 01:47:14;;;;;;;8.70;7.45;;;16.30;41.30;;;;;;4993528;28;20633;-54
2023/05/26 01:49:45;;;;;;;11.52;6.95;;;16.30;41.30;;;;;;4993182;28;20262;-55
2023/05/26 01:52:13;;;;;;;12.05;7.40;;;16.30;41.10;;;;;;4993299;28;20185;-56
2023/05/26 01:54:49;;;;;;;9.00;6.70;;;16.30;41.10;;;;;;4993407;28;20210;-53
2023/05/26 01:57:16;;;;;;;10.00;7.40;;;16.30;41.30;;;;;;4993333;28;20160;-52
2023/05/26 01:59:41;;;;;;;8.55;7.15;;;16.20;41.00;;;;;;4993065;28;20228;-56
2023/05/26 02:02:07;;;;;;;8.53;7.23;;;16.10;41.20;;;;;;4993216;28;20171;-55
2023/05/26 02:04:33;;;;;;;10.17;7.23;;;16.00;41.40;;;;;;4992957;28;20430;-52
2023/05/26 02:07:02;;;;;;;11.17;7.60;;;16.00;41.50;;;;;;4993079;28;20195;-52
2023/05/26 02:09:30;;;;;;;12.23;8.27;;;15.90;41.90;;;;;;4993124;28;20179;-56
2023/05/26 02:11:56;;;;;;;8.50;6.68;;;15.90;41.50;;;;;;4975880;28;20191;-52
2023/05/26 02:14:21;;;;;;;7.60;6.73;;;15.90;41.50;;;;;;4993043;28;20198;-52
2023/05/26 02:16:47;;;;;;;11.23;7.50;;;15.90;41.50;;;;;;4993191;28;20192;-54
2023/05/26 02:19:14;;;;;;;7.97;6.70;;;15.90;41.20;;;;;;4992842;28;20824;-52
2023/05/26 02:21:40;;;;;;;8.23;6.57;;;15.90;41.10;;;;;;4992905;28;20411;-52
2023/05/26 02:24:06;;;;;;;9.60;7.27;;;15.90;41.30;;;;;;4993010;28;20234;-54
2023/05/26 02:26:31;;;;;;;10.80;7.10;;;15.80;41.30;;;;;;4992781;28;20436;-51
2023/05/26 02:28:57;;;;;;;8.77;7.17;;;15.80;41.50;;;;;;4992791;28;20410;-55
2023/05/26 02:31:23;;;;;;;10.40;6.37;;;15.70;41.50;;;;;;4992674;28;20175;-54
2023/05/26 02:33:50;;;;;;;10.35;9.00;;;15.80;41.60;;;;;;4992648;28;20191;-52
2023/05/26 02:36:16;;;;;;;10.55;7.28;;;15.70;41.90;;;;;;4992782;28;20206;-52
2023/05/26 02:38:42;;;;;;;8.05;6.93;;;15.70;41.90;;;;;;4992553;28;20249;-55
2023/05/26 02:41:09;;;;;;;8.90;6.78;;;15.70;41.70;;;;;;4975357;28;20628;-55
2023/05/26 02:43:35;;;;;;;13.27;8.43;;;15.70;41.70;;;;;;4992604;28;20170;-55
2023/05/26 02:46:01;;;;;;;9.90;7.80;;;15.70;41.70;;;;;;4992665;28;20184;-54
2023/05/26 02:48:27;;;;;;;11.50;8.20;;;15.70;41.70;;;;;;4992756;28;20698;-54
2023/05/26 02:50:55;;;;;;;12.87;8.17;;;15.70;41.60;;;;;;4992647;28;20747;-54
2023/05/26 02:53:21;;;;;;;10.57;8.20;;;15.70;41.90;;;;;;4992697;28;20179;-54
2023/05/26 02:55:47;;;;;;;14.57;7.18;;;15.70;41.90;;;;;;4992443;28;20219;-54
2023/05/26 02:58:13;;;;;;;11.88;7.80;;;15.70;41.80;;;;;;4975090;28;20179;-53
2023/05/26 03:00:39;;;;;;;11.23;8.03;;;15.70;42.80;;;;;;4992282;28;20519;-54
2023/05/26 03:03:05;;;;;;;10.17;7.33;;;15.70;42.40;;;;;;4992456;28;20182;-54
2023/05/26 03:05:31;;;;;;;9.85;7.30;;;15.80;42.30;;;;;;4992334;28;20218;-52
2023/05/26 03:07:57;;;;;;;13.63;7.40;;;15.80;42.50;;;;;;4992532;28;20185;-51
2023/05/26 03:10:23;;;;;;;10.77;8.17;;;15.80;42.50;;;;;;4992115;28;20927;-54
2023/05/26 03:12:49;;;;;;;9.27;8.37;;;15.80;42.90;;;;;;4992703;28;20417;-51
2023/05/26 03:15:15;;;;;;;11.05;9.60;;;15.90;43.00;;;;;;4975176;28;20211;-52
2023/05/26 03:17:40;;;;;;;10.13;8.67;;;15.90;42.90;;;;;;4992540;28;20179;-54
2023/05/26 03:20:07;;;;;;;11.70;8.43;;;16.00;43.20;;;;;;4992309;28;20642;-53
2023/05/26 03:22:32;;;;;;;12.32;8.30;;;16.00;43.20;;;;;;4958916;28;20200;-52
2023/05/26 03:24:58;;;;;;;13.93;9.70;;;16.10;43.40;;;;;;4996147;28;20206;-54
2023/05/26 03:27:26;;;;;;;10.57;9.47;;;16.10;43.70;;;;;;4978743;28;20421;-55
2023/05/26 03:29:52;;;;;;;11.75;10.55;;;16.10;43.80;;;;;;4995935;28;20418;-53
2023/05/26 03:32:18;;;;;;;10.43;9.33;;;16.20;43.50;;;;;;4996346;28;20175;-55
2023/05/26 03:34:44;;;;;;;12.90;9.17;;;16.20;43.60;;;;;;4996007;28;20843;-53
2023/05/26 03:37:11;;;;;;;13.38;9.38;;;16.30;43.60;;;;;;4996025;28;20506;-55
2023/05/26 03:39:37;;;;;;;10.68;9.15;;;16.40;43.50;;;;;;4995795;28;20609;-53
2023/05/26 03:42:03;;;;;;;12.40;8.43;;;16.40;43.30;;;;;;4996032;28;20206;-53
2023/05/26 03:44:29;;;;;;;12.38;9.82;;;16.40;43.20;;;;;;4995817;28;20410;-55
2023/05/26 03:46:55;;;;;;;12.93;9.40;;;16.50;43.40;;;;;;4995657;28;20207;-56
2023/05/26 03:49:20;;;;;;;12.60;10.20;;;16.50;43.80;;;;;;4995628;28;20182;-53
2023/05/26 03:51:46;;;;;;;17.20;9.87;;;16.60;43.80;;;;;;4995777;28;20179;-53
2023/05/26 03:54:12;;;;;;;13.15;9.82;;;16.60;43.70;;;;;;4978175;28;20202;-56
2023/05/26 03:56:38;;;;;;;10.60;9.00;;;16.60;43.20;;;;;;4995474;28;20199;-53
2023/05/26 03:59:04;;;;;;;12.30;8.90;;;16.70;43.50;;;;;;4995386;28;20171;-53
2023/05/26 04:01:30;;;;;;;17.00;9.20;;;16.80;42.90;;;;;;4995676;28;20225;-53
2023/05/26 04:03:56;;;;;;;12.83;9.10;;;16.80;42.80;;;;;;4995572;28;20183;-55
2023/05/26 04:06:24;;;;;;;10.23;8.77;;;16.80;42.90;;;;;;4977773;28;20458;-52
2023/05/26 04:08:50;;;;;;;16.40;10.57;;;16.90;42.80;;;;;;4995377;28;20414;-52
2023/05/26 04:11:17;;;;;;;13.27;10.40;;;16.90;42.40;;;;;;4995238;28;20194;-52
2023/05/26 04:13:43;;;;;;;15.57;9.70;;;16.90;42.90;;;;;;4995302;28;20195;-54
2023/05/26 04:16:08;;;;;;;9.53;8.53;;;16.90;43.40;;;;;;4995072;28;20634;-55
2023/05/26 04:18:36;;;;;;;11.90;9.67;;;17.00;43.50;;;;;;4995274;28;20417;-56
2023/05/26 04:21:03;;;;;;;12.15;9.75;;;17.00;43.40;;;;;;4995172;28;20250;-54
2023/05/26 04:23:29;;;;;;;15.05;9.45;;;17.00;43.60;;;;;;4995458;28;20175;-54
2023/05/26 04:25:57;;;;;;;11.20;9.15;;;17.10;43.70;;;;;;4961425;28;20195;-55
2023/05/26 04:28:24;;;;;;;10.30;9.25;;;17.10;43.60;;;;;;4994863;28;20179;-53
2023/05/26 04:30:50;;;;;;;10.68;9.13;;;17.20;43.80;;;;;;4994982;28;20261;-56
2023/05/26 04:33:16;;;;;;;13.60;10.57;;;17.30;43.80;;;;;;4994787;28;20266;-54
2023/05/26 04:35:44;;;;;;;13.67;9.13;;;17.30;43.60;;;;;;4994495;28;20493;-55
2023/05/26 04:38:12;;;;;;;11.27;9.60;;;17.40;43.20;;;;;;4994794;28;20265;-53
2023/05/26 04:40:39;;;;;;;12.43;8.73;;;17.40;42.80;;;;;;4994543;28;20179;-52
2023/05/26 04:43:04;;;;;;;11.50;8.48;;;17.50;42.80;;;;;;4994924;28;20175;-55
2023/05/26 04:45:30;;;;;;;11.83;9.63;;;17.50;42.50;;;;;;4994804;28;20213;-55
2023/05/26 04:47:56;;;;;;;12.87;8.80;;;17.50;42.40;;;;;;4994848;28;20406;-52
2023/05/26 04:50:23;;;;;;;10.50;8.33;;;17.50;42.20;;;;;;4994270;28;20550;-52
2023/05/26 04:52:52;;;;;;;11.55;8.88;;;17.60;42.10;;;;;;4994541;28;20974;-54
2023/05/26 04:55:18;;;;;;;11.13;8.85;;;17.70;42.00;;;;;;4994270;28;20716;-52
2023/05/26 04:57:44;;;;;;;12.38;9.85;;;17.70;41.90;;;;;;4994310;28;20176;-55
2023/05/26 05:00:13;;;;;;;12.93;8.65;;;17.80;41.70;;;;;;4994328;28;20180;-52
2023/05/26 05:02:39;;;;;;;10.40;8.18;;;17.80;40.90;;;;;;4994476;28;20172;-55
2023/05/26 05:05:05;;;;;;;10.18;8.10;;;17.90;41.30;;;;;;4994159;28;20222;-51
2023/05/26 05:07:32;;;;;;;13.15;10.35;;;17.90;41.60;;;;;;4994221;28;20175;-52
2023/05/26 05:09:57;;;;;;;14.05;9.15;;;17.90;41.30;;;;;;4993865;28;20198;-52
2023/05/26 05:12:24;;;;;;;13.50;10.10;;;17.90;41.60;;;;;;4994245;28;20171;-52
2023/05/26 05:14:50;;;;;;;14.38;9.18;;;18.00;41.50;;;;;;4994241;28;20215;-54
2023/05/26 05:17:16;;;;;;;19.58;9.85;;;18.10;41.60;;;;;;4994366;28;20210;-51
2023/05/26 05:19:42;;;;;;;17.90;11.40;;;18.10;41.60;;;;;;4993775;28;20168;-51
2023/05/26 05:22:08;;;;;;;11.30;9.20;;;18.20;41.30;;;;;;4993982;28;20188;-54
2023/05/26 05:24:34;;;;;;;11.40;9.00;;;18.30;41.40;;;;;;4993828;28;20213;-56
2023/05/26 05:27:01;;;;;;;12.03;9.50;;;18.20;41.10;;;;;;4994121;28;20203;-53
2023/05/26 05:29:27;;;;;;;14.25;10.25;;;18.30;41.30;;;;;;4993632;28;20178;-53
2023/05/26 05:31:53;;;;;;;12.83;8.80;;;18.30;41.30;;;;;;4994098;28;20183;-55
2023/05/26 05:34:19;;;;;;;10.90;8.73;;;18.30;40.90;;;;;;4993796;28;20446;-55
2023/05/26 05:36:45;;;;;;;13.17;8.93;;;18.40;40.90;;;;;;4993725;28;20209;-53
2023/05/26 05:39:10;;;;;;;11.43;8.47;;;18.50;40.70;;;;;;4993434;28;20904;-53
2023/05/26 05:41:36;;;;;;;11.70;9.60;;;18.50;40.40;;;;;;4993513;28;20220;-54
2023/05/26 05:44:03;;;;;;;12.47;9.17;;;18.60;40.60;;;;;;4993507;28;20217;-52
2023/05/26 05:46:28;;;;;;;16.38;9.07;;;18.80;40.40;;;;;;4993250;28;20613;-54
2023/05/26 05:48:54;;;;;;;12.47;9.00;;;18.80;39.90;;;;;;4993682;28;20203;-52
2023/05/26 05:51:20;;;;;;;14.27;9.03;;;18.80;39.90;;;;;;4993222;28;20652;-54
2023/05/26 05:53:46;;;;;;;10.97;9.23;;;18.90;40.00;;;;;;4993452;28;20472;-52
2023/05/26 05:56:12;;;;;;;10.43;9.32;;;19.00;40.00;;;;;;4993179;28;20188;-52
2023/05/26 05:58:38;;;;;;;13.70;9.83;;;19.10;39.50;;;;;;4993211;28;20206;-51
2023/05/26 06:01:04;;;;;;;16.40;10.70;;;19.10;39.50;;;;;;4993159;28;20181;-53
2023/05/26 06:03:30;;;;;;;11.83;9.90;;;19.20;39.50;;;;;;4993249;28;20167;-51
2023/05/26 06:05:55;;;;;;;13.03;8.53;;;19.20;39.40;;;;;;4992994;28;20225;-52
2023/05/26 06:08:21;;;;;;;10.17;8.80;;;19.20;39.40;;;;;;4993109;28;20737;-54
2023/05/26 06:10:47;;;;;;;10.70;8.53;;;19.20;39.30;;;;;;4992908;28;20171;-54
2023/05/26 06:13:13;;;;;;;12.43;8.83;;;19.30;39.50;;;;;;4992986;28;20262;-51
2023/05/26 06:15:38;;;;;;;14.77;9.10;;;19.40;39.40;;;;;;4992909;28;20233;-54
2023/05/26 06:18:04;;;;;;;12.37;9.23;;;19.40;39.40;;;;;;4992951;28;20171;-51
2023/05/26 06:20:30;;;;;;;11.70;8.77;;;19.40;39.20;;;;;;4992666;28;20197;-53
2023/05/26 06:22:56;;;;;;;14.03;10.30;;;19.50;39.30;;;;;;4992797;28;20482;-52
2023/05/26 06:25:22;;;;;;;11.53;9.70;;;19.50;39.10;;;;;;4993079;28;20593;-53
2023/05/26 06:27:47;;;;;;;19.30;8.10;;;19.60;39.20;;;;;;4992825;28;20657;-55
2023/05/26 06:30:14;;;;;;;15.80;12.00;;;19.70;39.20;;;;;;4992593;28;20411;-53
2023/05/26 06:32:41;;;;;;;15.02;11.73;;;19.80;39.10;;;;;;4975545;28;20269;-52
2023/05/26 06:35:07;;;;;;;11.63;8.82;;;20.00;38.90;;;;;;4992658;28;20211;-54
2023/05/26 06:37:32;;;;;;;11.52;9.90;;;20.10;38.80;;;;;;4992668;28;20664;-52
2023/05/26 06:39:58;;;;;;;14.43;9.40;;;20.10;38.60;;;;;;4992714;28;20187;-51
2023/05/26 06:42:24;;;;;;;16.60;9.50;;;20.10;38.40;;;;;;4992713;28;20175;-54
2023/05/26 06:44:50;;;;;;;12.80;9.70;;;20.00;38.40;;;;;;4992601;28;20179;-54
2023/05/26 06:47:18;;;;;;;11.60;9.77;;;20.10;38.50;;;;;;4992562;28;20183;-52
2023/05/26 06:49:44;;;;;;;13.13;10.25;;;20.10;38.70;;;;;;4992344;28;20172;-51
2023/05/26 06:52:10;;;;;;;11.37;9.30;;;20.20;38.80;;;;;;4992448;28;20195;-54
2023/05/26 06:54:36;;;;;;;13.80;9.50;;;20.30;38.80;;;;;;4992533;28;20194;-52
2023/05/26 06:57:02;;;;;;;9.87;8.10;;;20.40;38.90;;;;;;4992417;28;20245;-52
2023/05/26 06:59:28;;;;;;;11.30;9.23;;;20.50;38.90;;;;;;4978085;28;20675;-54
2023/05/26 07:01:54;;;;;;;14.23;8.97;;;20.60;38.60;;;;;;4996876;28;20183;-53
2023/05/26 07:04:20;;;;;;;9.60;8.60;;;20.70;38.30;;;;;;4996372;28;20935;-53
2023/05/26 07:06:46;;;;;;;9.17;8.20;;;20.70;38.10;;;;;;4996673;28;20241;-53
2023/05/26 07:09:12;;;;;;;11.70;7.97;;;20.80;38.00;;;;;;4996230;28;20410;-53
2023/05/26 07:11:37;;;;;;;13.10;9.00;;;20.80;38.20;;;;;;4996711;28;20175;-55
2023/05/26 07:14:03;;;;;;;12.90;8.67;;;20.90;38.20;;;;;;4996295;28;20199;-55
2023/05/26 07:16:29;;;;;;;16.30;8.20;;;20.90;38.10;;;;;;4996272;28;20187;-52
2023/05/26 07:18:55;;;;;;;11.50;7.13;;;20.90;37.90;;;;;;4996212;28;20202;-55
2023/05/26 07:21:22;;;;;;;16.23;9.50;;;20.90;37.00;;;;;;4996079;28;20410;-54
2023/05/26 07:23:48;;;;;;;13.07;8.43;;;20.80;37.50;;;;;;4996476;28;20183;-52
2023/05/26 07:26:14;;;;;;;14.95;7.75;;;20.90;37.90;;;;;;4996300;28;20681;-56
2023/05/26 07:28:41;;;;;;;12.30;8.07;;;20.90;37.80;;;;;;4996147;28;20258;-53
2023/05/26 07:31:07;;;;;;;8.93;7.90;;;21.00;37.80;;;;;;4996164;28;20464;-54
2023/05/26 07:33:32;;;;;;;11.90;6.80;;;21.10;37.60;;;;;;4978617;28;20171;-53
2023/05/26 07:35:58;;;;;;;14.07;9.37;;;21.30;38.00;;;;;;4996102;28;20454;-56
2023/05/26 07:38:24;;;;;;;15.23;8.27;;;21.40;37.10;;;;;;4995946;28;20936;-53
2023/05/26 07:40:51;;;;;;;13.27;7.87;;;21.40;36.60;;;;;;4995976;28;20197;-53
2023/05/26 07:43:17;;;;;;;11.63;8.45;;;21.60;37.50;;;;;;4995797;28;20804;-55
2023/05/26 07:46:01;;;;;;;10.23;8.47;;;21.80;37.50;;;;;;4995762;28;20580;-52
2023/05/26 07:48:27;;;;;;;9.17;8.17;;;22.10;37.40;;;;;;4962165;28;20414;-54
2023/05/26 07:50:53;;;;;;;11.90;8.13;;;22.30;37.10;;;;;;4995606;28;20414;-53
2023/05/26 07:53:19;;;;;;;16.43;8.33;;;22.40;35.80;;;;;;4995556;28;20410;-55
2023/05/26 07:55:45;;;;;;;12.50;6.60;;;22.50;35.60;;;;;;4995509;28;20273;-53
2023/05/26 07:58:11;;;;;;;14.37;7.57;;;22.60;34.60;;;;;;4995538;28;20457;-55
2023/05/26 08:00:37;;;;;;;16.27;7.50;;;22.60;34.90;;;;;;4995345;28;20403;-53
2023/05/26 08:03:04;;;;;;;13.10;7.07;;;22.70;35.80;;;;;;4995389;28;20172;-53
2023/05/26 08:05:30;;;;;;;12.37;8.00;;;22.80;35.60;;;;;;4995328;28;20827;-55
2023/05/26 08:07:56;;;;;;;12.63;7.77;;;22.90;34.20;;;;;;4995454;28;20781;-55
2023/05/26 08:10:23;;;;;;;10.80;7.50;;;23.00;35.00;;;;;;4994653;28;20422;-52
2023/05/26 08:12:51;;;;;;;28.23;7.33;;;23.10;34.40;;;;;;4995346;28;20521;-55
2023/05/26 08:15:17;;;;;;;14.97;8.90;;;23.10;34.70;;;;;;4995121;28;20544;-53
2023/05/26 08:17:43;;;;;;;13.30;7.00;;;23.10;33.60;;;;;;4995018;28;20410;-53
2023/05/26 08:20:10;;;;;;;16.53;6.90;;;23.00;33.90;;;;;;4995265;28;20464;-55
2023/05/26 08:22:36;;;;;;;14.43;8.37;;;23.00;33.60;;;;;;4995091;28;20405;-56
2023/05/26 08:25:02;;;;;;;12.70;6.43;;;22.90;33.60;;;;;;4994958;28;20402;-53
2023/05/26 08:27:28;;;;;;;22.10;8.30;;;22.80;34.20;;;;;;4995228;28;20410;-53
2023/05/26 08:29:54;;;;;;;12.47;6.77;;;22.80;34.60;;;;;;4994726;28;20781;-56
2023/05/26 08:32:20;;;;;;;8.50;5.80;;;22.90;34.60;;;;;;4995150;28;20225;-53
2023/05/26 08:34:46;;;;;;;10.43;5.37;;;22.90;34.20;;;;;;4994854;28;20947;-56
2023/05/26 08:37:13;;;;;;;14.33;6.90;;;22.90;34.20;;;;;;4994763;28;20634;-53
2023/05/26 08:39:40;;;;;;;12.53;6.00;;;23.10;34.40;;;;;;4994641;28;20175;-52
2023/05/26 08:42:09;;;;;;;14.23;5.97;;;23.30;35.30;;;;;;4977307;28;20988;-56
2023/05/26 08:44:36;;;;;;;9.57;6.37;;;23.60;34.40;;;;;;4994552;28;20406;-53
2023/05/26 08:47:05;;;;;;;10.90;5.73;;;23.70;33.00;;;;;;4994542;28;20939;-53
2023/05/26 08:49:39;;;;;;;18.53;6.63;;;23.80;33.00;;;;;;4994451;28;20800;-54
2023/05/26 08:52:13;;;;;;;12.63;6.27;;;23.80;32.80;;;;;;4994750;28;20873;-54
2023/05/26 08:54:39;;;;;;;14.87;6.70;;;24.00;32.70;;;;;;4994506;28;20457;-56
2023/05/26 08:57:06;;;;;;;10.93;5.80;;;23.90;32.70;;;;;;4994297;28;20470;-53
2023/05/26 08:59:32;;;;;;;14.07;5.57;;;23.90;31.90;;;;;;4994361;28;20411;-53
2023/05/26 09:01:58;;;;;;;10.97;5.03;;;23.90;31.20;;;;;;4994485;28;20414;-55
2023/05/26 09:04:25;;;;;;;7.13;5.20;;;23.80;30.90;;;;;;4994475;28;20927;-56
2023/05/26 09:06:51;;;;;;;11.77;6.80;;;23.80;30.90;;;;;;4994421;28;20434;-53
2023/05/26 09:09:18;;;;;;;14.13;6.37;;;23.70;30.90;;;;;;4994031;28;20474;-53
2023/05/26 09:11:44;;;;;;;17.57;6.60;;;23.80;31.40;;;;;;4994169;28;20437;-55
2023/05/26 09:14:16;;;;;;;13.43;6.47;;;23.80;31.70;;;;;;4994431;28;20453;-53
2023/05/26 09:16:43;;;;;;;13.90;6.40;;;23.80;32.10;;;;;;4994165;28;20788;-53
2023/05/26 09:19:15;;;;;;;11.00;5.30;;;23.90;31.70;;;;;;4993994;28;20935;-57
2023/05/26 09:21:53;;;;;;;9.93;5.10;;;23.80;31.50;;;;;;4993267;28;20897;-55
2023/05/26 09:24:23;;;;;;;16.10;6.47;;;23.80;31.70;;;;;;4994037;28;20471;-53
2023/05/26 09:26:50;;;;;;;16.07;6.60;;;23.90;32.70;;;;;;4994013;28;20465;-53
2023/05/26 09:29:16;;;;;;;15.50;6.80;;;24.00;33.00;;;;;;4993726;28;20438;-53
2023/05/26 09:31:46;;;;;;;10.40;5.03;;;24.10;32.10;;;;;;4993949;28;20430;-54
2023/05/26 09:34:13;;;;;;;11.93;6.00;;;24.10;31.70;;;;;;4993708;28;20482;-54
2023/05/26 09:36:40;;;;;;;11.03;5.00;;;24.10;31.90;;;;;;4993718;28;20434;-54
2023/05/26 09:39:10;;;;;;;13.73;5.53;;;24.10;30.10;;;;;;4993824;28;20429;-53
2023/05/26 09:41:40;;;;;;;12.73;5.03;;;24.10;29.40;;;;;;4993703;28;20501;-56
2023/05/26 09:44:07;;;;;;;11.43;5.30;;;24.10;30.40;;;;;;4993518;28;20402;-53
2023/05/26 09:46:34;;;;;;;10.07;6.07;;;24.20;30.50;;;;;;4993451;28;20814;-56
2023/05/26 09:49:00;;;;;;;9.13;4.87;;;24.40;30.80;;;;;;4993454;28;20402;-53
2023/05/26 09:51:32;;;;;;;10.30;5.73;;;24.60;30.40;;;;;;4993307;28;20739;-53
2023/05/26 09:53:57;;;;;;;11.73;5.47;;;24.70;30.20;;;;;;4993413;28;20668;-56
2023/05/26 09:56:26;;;;;;;8.07;6.30;;;24.60;28.90;;;;;;4993327;28;20430;-53
2023/05/26 09:58:54;;;;;;;7.93;4.50;;;24.50;29.20;;;;;;4993398;28;20183;-55
2023/05/26 10:01:21;;;;;;;10.60;5.00;;;24.40;28.10;;;;;;4993160;28;20414;-55
2023/05/26 10:03:48;;;;;;;12.60;5.80;;;24.50;28.80;;;;;;4993247;28;20449;-53
2023/05/26 10:06:17;;;;;;;10.57;5.97;;;24.60;28.90;;;;;;4992968;28;20457;-55
2023/05/26 10:08:45;;;;;;;10.73;4.30;;;24.80;30.10;;;;;;4993123;28;20415;-55
2023/05/26 10:11:12;;;;;;;14.87;6.00;;;24.90;29.80;;;;;;4993015;28;20461;-55
2023/05/26 10:13:38;;;;;;;14.37;5.17;;;25.00;29.50;;;;;;4993114;28;20781;-52
2023/05/26 10:16:04;;;;;;;16.10;6.60;;;25.10;28.50;;;;;;4992927;28;20465;-55
2023/05/26 10:18:31;;;;;;;7.80;5.40;;;25.00;28.40;;;;;;4992911;28;20410;-55
2023/05/26 10:20:59;;;;;;;8.90;5.60;;;25.00;28.70;;;;;;4993058;28;20406;-52
2023/05/26 10:23:31;;;;;;;14.57;5.87;;;25.10;27.90;;;;;;4992958;28;20411;-55
2023/05/26 10:26:06;;;;;;;8.47;4.73;;;25.20;28.70;;;;;;4992826;28;20836;-52
2023/05/26 10:28:34;;;;;;;9.50;3.93;;;25.20;28.10;;;;;;4992767;28;20413;-55
2023/05/26 10:31:01;;;;;;;11.43;4.40;;;25.30;26.60;;;;;;4992614;28;20410;-55
2023/05/26 10:33:40;;;;;;;9.40;4.30;;;25.50;25.70;;;;;;4992556;28;20768;-52
2023/05/26 10:36:24;;;;;;;6.40;4.13;;;25.80;26.70;;;;;;4992594;28;20470;-55
2023/05/26 10:38:52;;;;;;;6.83;4.40;;;25.90;26.20;;;;;;4992786;28;20444;-53
2023/05/26 10:41:38;;;;;;;10.63;5.57;;;26.10;26.90;;;;;;4992529;28;20411;-55
2023/05/26 10:44:04;;;;;;;8.60;3.70;;;26.20;25.10;;;;;;4992703;28;20402;-54
2023/05/26 10:46:45;;;;;;;6.90;3.60;;;26.30;25.50;;;;;;4992635;28;20422;-53
2023/05/26 10:49:21;;;;;;;8.47;3.70;;;26.40;24.30;;;;;;4992607;28;20410;-55
2023/05/26 10:51:52;;;;;;;17.40;4.63;;;26.50;24.00;;;;;;4992477;28;20421;-53
2023/05/26 10:54:25;;;;;;;10.53;4.23;;;27.20;25.30;;;;;;4992417;28;21006;-55
2023/05/26 10:56:52;;;;;;;15.10;5.63;;;26.70;22.50;;;;;;4992449;28;20453;-53
2023/05/26 10:59:36;;;;;;;10.20;3.30;;;26.60;20.40;;;;;;4992316;28;20548;-53
2023/05/26 11:02:04;;;;;;;9.67;4.03;;;26.60;22.00;;;;;;4992371;28;20407;-55
2023/05/26 11:04:46;;;;;;;7.40;3.67;;;26.50;24.00;;;;;;4992399;28;20407;-55
2023/05/26 11:07:17;;;;;;;12.87;6.03;;;26.60;24.20;;;;;;4992476;28;20410;-55
2023/05/26 11:10:01;;;;;;;9.57;4.50;;;26.60;25.30;;;;;;4992355;28;20438;-53
2023/05/26 11:12:51;;;;;;;9.30;4.33;;;26.80;24.80;;;;;;4992256;28;20465;-56
2023/05/26 11:15:30;;;;;;;10.90;4.67;;;26.90;22.90;;;;;;4992100;28;20976;-55
2023/05/26 11:18:09;;;;;;;9.10;4.63;;;26.90;24.00;;;;;;4992363;28;20410;-54
2023/05/26 11:20:35;;;;;;;9.33;5.30;;;27.10;22.60;;;;;;4992157;28;20578;-56
2023/05/26 11:23:02;;;;;;;8.20;4.50;;;27.00;24.40;;;;;;4992252;28;20402;-53
2023/05/26 11:25:28;;;;;;;6.17;4.00;;;27.10;24.20;;;;;;4974759;28;20434;-53
2023/05/26 11:27:54;;;;;;;10.70;3.87;;;27.20;23.80;;;;;;4992486;28;20927;-56
2023/05/26 11:30:20;;;;;;;6.60;3.80;;;27.30;23.50;;;;;;4992240;28;20179;-53
2023/05/26 11:32:51;;;;;;;8.03;4.10;;;27.40;23.20;;;;;;4992282;28;20415;-54
2023/05/26 11:35:27;;;;;;;11.73;4.40;;;27.40;23.00;;;;;;4992095;28;21231;-56
2023/05/26 11:37:55;;;;;;;9.10;4.53;;;27.40;23.20;;;;;;4992242;28;20445;-53
2023/05/26 11:40:21;;;;;;;10.10;3.93;;;27.40;23.80;;;;;;4992080;28;20406;-56
2023/05/26 11:42:53;;;;;;;7.73;3.70;;;27.50;23.50;;;;;;4992181;28;20485;-56
2023/05/26 11:45:18;;;;;;;10.80;4.40;;;27.60;22.10;;;;;;4977253;28;20816;-54
2023/05/26 11:47:44;;;;;;;10.97;4.03;;;27.60;22.80;;;;;;4995781;28;20410;-56
2023/05/26 11:50:11;;;;;;;6.97;3.53;;;27.70;23.00;;;;;;4995386;28;20306;-53
2023/05/26 11:52:48;;;;;;;11.40;4.23;;;27.90;23.30;;;;;;4995830;28;20589;-53
2023/05/26 11:55:15;;;;;;;7.13;3.57;;;28.00;22.70;;;;;;4995527;28;20940;-53
2023/05/26 11:57:44;;;;;;;6.57;4.60;;;28.10;22.90;;;;;;4995823;28;20403;-51
2023/05/26 12:00:17;;;;;;;8.30;4.07;;;28.10;21.80;;;;;;4995303;28;20411;-55
2023/05/26 12:02:44;;;;;;;10.40;3.97;;;28.00;21.10;;;;;;4978017;28;20414;-55
2023/05/26 12:05:21;;;;;;;9.70;4.67;;;28.00;21.40;;;;;;4995134;28;20944;-53
2023/05/26 12:08:04;;;;;;;11.13;3.97;;;28.10;23.20;;;;;;4995604;28;20402;-54
2023/05/26 12:10:30;;;;;;;7.07;3.93;;;28.20;21.10;;;;;;4995035;28;20407;-55
2023/05/26 12:12:57;;;;;;;9.60;4.03;;;28.20;21.00;;;;;;4995240;28;20410;-54
2023/05/26 12:15:23;;;;;;;9.70;3.90;;;28.20;22.10;;;;;;4995264;28;20465;-54
2023/05/26 12:17:54;;;;;;;7.03;3.70;;;28.30;22.30;;;;;;4995139;28;20897;-53
2023/05/26 12:20:22;;;;;;;9.53;3.67;;;28.50;22.10;;;;;;4995101;28;20461;-54
2023/05/26 12:22:52;;;;;;;6.90;3.90;;;28.60;21.80;;;;;;4995091;28;20399;-52
2023/05/26 12:25:24;;;;;;;6.63;3.63;;;28.60;21.60;;;;;;4994788;28;20426;-52
2023/05/26 12:27:50;;;;;;;9.87;4.37;;;28.70;22.20;;;;;;4977778;28;20822;-55
2023/05/26 12:30:20;;;;;;;9.07;3.70;;;28.60;19.20;;;;;;4994681;28;20477;-52
2023/05/26 12:32:49;;;;;;;9.83;4.27;;;28.60;21.20;;;;;;4995238;28;20927;-55
2023/05/26 12:35:15;;;;;;;10.90;5.27;;;28.70;20.50;;;;;;4994789;28;20484;-55
2023/05/26 12:37:42;;;;;;;11.17;3.80;;;28.70;20.90;;;;;;4994821;28;20848;-54
2023/05/26 12:40:08;;;;;;;8.43;4.20;;;28.70;20.70;;;;;;4994133;28;20433;-55
2023/05/26 12:42:35;;;;;;;11.83;4.57;;;28.70;20.20;;;;;;4994875;28;20445;-53